createdAt,value
2023-01-31T00:02:20.152Z,99107.88
2023-01-31T00:04:48.083Z,99109.41
2023-01-31T00:07:15.559Z,99105.53
2023-01-31T00:09:43.061Z,99101.91
2023-01-31T00:12:10.527Z,99099.88
2023-01-31T00:14:38.503Z,99105.81
2023-01-31T00:17:06.569Z,99105.31
2023-01-31T00:19:34.087Z,99105.84
2023-01-31T00:22:01.639Z,99092.16
2023-01-31T00:24:29.206Z,99091.66
2023-01-31T00:26:57.019Z,99092.66
2023-01-31T00:29:26.956Z,99086.47
2023-01-31T00:31:55.687Z,99086.94
2023-01-31T00:34:23.236Z,99093.69
2023-01-31T00:36:50.942Z,99083.34
2023-01-31T00:39:18.608Z,99074.28
2023-01-31T00:41:46.112Z,99087.75
2023-01-31T00:44:13.714Z,99078.19
2023-01-31T00:46:41.246Z,99075.59
2023-01-31T00:49:08.871Z,99082.06
2023-01-31T00:51:36.652Z,99096.56
2023-01-31T00:54:04.319Z,99089.56
2023-01-31T00:56:32.187Z,99086.22
2023-01-31T00:59:00.452Z,99090.84
2023-01-31T01:01:30.189Z,99082.31
2023-01-31T01:03:59.605Z,99082.59
2023-01-31T01:06:28.403Z,99081.53
2023-01-31T01:08:59.853Z,99078.44
2023-01-31T01:11:32.172Z,99076.38
2023-01-31T01:14:01.076Z,99065.00
2023-01-31T01:16:37.080Z,99060.34
2023-01-31T01:19:09.582Z,99082.59
2023-01-31T01:21:40.815Z,99068.91
2023-01-31T01:24:20.225Z,99079.47
2023-01-31T01:26:48.535Z,99074.78
2023-01-31T01:29:16.191Z,99063.69
2023-01-31T01:31:45.340Z,99062.41
2023-01-31T01:34:15.951Z,99061.38
2023-01-31T01:36:46.766Z,99049.00
2023-01-31T01:39:17.162Z,99056.72
2023-01-31T01:41:46.079Z,99057.28
2023-01-31T01:44:49.156Z,99051.31
2023-01-31T01:47:36.311Z,99053.13
2023-01-31T01:50:16.082Z,99069.16
2023-01-31T01:53:01.752Z,99069.66
2023-01-31T01:56:04.310Z,99054.16
2023-01-31T01:58:47.096Z,99060.34
2023-01-31T02:01:16.913Z,99043.81
2023-01-31T02:03:49.916Z,99061.94
2023-01-31T02:06:17.582Z,99051.56
2023-01-31T02:08:46.199Z,99058.28
2023-01-31T02:11:30.784Z,99042.47
2023-01-31T02:14:10.647Z,99050.22
2023-01-31T02:16:38.199Z,99043.78
2023-01-31T02:19:21.389Z,99042.53
2023-01-31T02:22:12.564Z,99036.34
2023-01-31T02:24:54.726Z,99029.31
2023-01-31T02:28:05.586Z,99021.28
2023-01-31T02:31:00.943Z,99024.22
2023-01-31T02:34:03.702Z,99029.44
2023-01-31T02:36:53.203Z,99022.97
2023-01-31T02:39:36.936Z,99032.63
2023-01-31T02:42:28.446Z,99030.56
2023-01-31T02:45:23.702Z,99027.50
2023-01-31T02:48:32.677Z,99034.69
2023-01-31T02:51:13.583Z,99032.22
2023-01-31T02:53:48.632Z,99031.66
2023-01-31T02:56:26.514Z,99033.78
2023-01-31T02:59:08.765Z,99025.13
2023-01-31T03:01:44.568Z,99039.00
2023-01-31T03:04:14.545Z,99028.66
2023-01-31T03:06:59.854Z,99021.75
2023-01-31T03:09:52.368Z,99015.81
2023-01-31T03:13:07.291Z,99018.13
2023-01-31T03:16:10.682Z,99024.56
2023-01-31T03:19:23.705Z,99020.16
2023-01-31T03:22:03.671Z,99020.91
2023-01-31T03:24:32.703Z,99010.31
2023-01-31T03:27:04.961Z,99017.50
2023-01-31T03:29:38.507Z,99016.22
2023-01-31T03:32:24.932Z,99016.75
2023-01-31T03:34:53.101Z,99026.88
2023-01-31T03:37:26.026Z,99027.16
2023-01-31T03:40:21.881Z,99019.41
2023-01-31T03:42:59.617Z,99019.56
2023-01-31T03:45:38.720Z,99019.34
2023-01-31T03:48:14.447Z,99019.25
2023-01-31T03:50:51.986Z,99016.13
2023-01-31T03:53:53.532Z,99020.50
2023-01-31T03:56:44.675Z,99011.13
2023-01-31T03:59:20.046Z,99014.94
2023-01-31T04:01:52.186Z,99022.09
2023-01-31T04:04:30.347Z,99019.19
2023-01-31T04:06:57.962Z,99018.69
2023-01-31T04:09:26.155Z,99012.31
2023-01-31T04:11:53.859Z,99020.69
2023-01-31T04:14:21.454Z,99028.38
2023-01-31T04:16:49.063Z,99034.78
2023-01-31T04:19:16.543Z,99039.09
2023-01-31T04:21:44.085Z,99045.38
2023-01-31T04:24:11.918Z,99046.38
2023-01-31T04:26:39.474Z,99048.47
2023-01-31T04:29:07.036Z,99051.75
2023-01-31T04:31:34.662Z,99047.72
2023-01-31T04:34:02.309Z,99047.25
2023-01-31T04:36:29.894Z,99054.63
2023-01-31T04:38:57.377Z,99060.88
2023-01-31T04:41:25.045Z,99065.53
2023-01-31T04:43:52.690Z,99060.63
2023-01-31T04:46:20.726Z,99068.06
2023-01-31T04:48:48.580Z,99076.88
2023-01-31T04:51:16.154Z,99069.06
2023-01-31T04:53:45.445Z,99072.97
2023-01-31T04:56:13.006Z,99071.78
2023-01-31T04:58:41.596Z,99068.16
2023-01-31T05:01:09.424Z,99072.44
2023-01-31T05:03:37.082Z,99080.34
2023-01-31T05:06:04.973Z,99089.81
2023-01-31T05:08:32.854Z,99078.50
2023-01-31T05:11:07.536Z,99075.69
2023-01-31T05:13:39.251Z,99073.00
2023-01-31T05:16:11.729Z,99070.41
2023-01-31T05:18:40.273Z,99073.59
2023-01-31T05:21:08.584Z,99068.66
2023-01-31T05:23:36.802Z,99058.03
2023-01-31T05:26:05.000Z,99062.75
2023-01-31T05:28:32.756Z,99054.13
2023-01-31T05:31:07.175Z,99064.28
2023-01-31T05:33:36.164Z,99069.41
2023-01-31T05:36:04.520Z,99068.88
2023-01-31T05:38:32.138Z,99069.72
2023-01-31T05:40:59.782Z,99076.97
2023-01-31T05:43:27.405Z,99083.50
2023-01-31T05:45:54.963Z,99083.78
2023-01-31T05:48:22.662Z,99091.53
2023-01-31T05:50:51.167Z,99102.19
2023-01-31T05:53:19.100Z,99099.28
2023-01-31T05:55:47.529Z,99100.63
2023-01-31T05:58:15.097Z,99091.84
2023-01-31T06:00:42.680Z,99093.13
2023-01-31T06:03:11.169Z,99098.00
2023-01-31T06:05:40.490Z,99096.44
2023-01-31T06:08:08.260Z,99105.75
2023-01-31T06:10:35.757Z,99102.88
2023-01-31T06:13:03.280Z,99107.28
2023-01-31T06:15:30.826Z,99105.50
2023-01-31T06:17:59.091Z,99116.09
2023-01-31T06:20:27.707Z,99119.72
2023-01-31T06:22:55.303Z,99123.31
2023-01-31T06:25:23.113Z,99118.13
2023-01-31T06:27:50.696Z,99123.00
2023-01-31T06:30:18.583Z,99119.09
2023-01-31T06:32:46.118Z,99116.53
2023-01-31T06:35:13.779Z,99124.50
2023-01-31T06:37:41.389Z,99126.56
2023-01-31T06:40:12.448Z,99126.06
2023-01-31T06:42:39.991Z,99138.19
2023-01-31T06:45:08.381Z,99123.16
2023-01-31T06:47:36.191Z,99129.09
2023-01-31T06:50:04.046Z,99117.13
2023-01-31T06:52:31.653Z,99126.38
2023-01-31T06:54:59.148Z,99132.53
2023-01-31T06:57:26.811Z,99141.34
2023-01-31T06:59:54.409Z,99159.34
2023-01-31T07:02:21.913Z,99154.09
2023-01-31T07:04:49.532Z,99149.38
2023-01-31T07:07:17.399Z,99158.84
2023-01-31T07:09:44.984Z,99165.06
2023-01-31T07:12:12.767Z,99164.69
2023-01-31T07:14:40.864Z,99163.84
2023-01-31T07:17:08.413Z,99182.63
2023-01-31T07:19:37.445Z,99159.16
2023-01-31T07:22:05.051Z,99171.50
2023-01-31T07:24:32.611Z,99178.38
2023-01-31T07:27:01.321Z,99191.50
2023-01-31T07:29:28.900Z,99182.50
2023-01-31T07:31:56.582Z,99180.88
2023-01-31T07:34:24.882Z,99197.00
2023-01-31T07:36:52.989Z,99198.22
2023-01-31T07:39:20.593Z,99200.63
2023-01-31T07:41:48.981Z,99206.09
2023-01-31T07:44:16.874Z,99203.94
2023-01-31T08:21:47.105Z,99216.31
2023-01-31T08:24:14.711Z,99213.03
2023-01-31T08:26:44.435Z,99228.22
2023-01-31T08:29:12.058Z,99220.56
2023-01-31T08:31:42.362Z,99218.47
2023-01-31T08:34:10.296Z,99228.06
2023-01-31T08:36:38.216Z,99221.34
2023-01-31T08:39:06.109Z,99224.53
2023-01-31T08:41:37.645Z,99227.13
2023-01-31T08:44:08.551Z,99231.25
2023-01-31T08:46:38.193Z,99232.84
2023-01-31T08:49:07.396Z,99236.31
2023-01-31T08:51:38.512Z,99243.38
2023-01-31T08:54:06.189Z,99240.13
2023-01-31T08:56:33.969Z,99250.25
2023-01-31T08:59:01.589Z,99247.50
2023-01-31T09:01:29.317Z,99251.50
2023-01-31T09:03:58.119Z,99262.22
2023-01-31T09:06:27.716Z,99248.72
2023-01-31T09:08:59.403Z,99238.28
2023-01-31T09:11:30.860Z,99238.59
2023-01-31T09:13:59.268Z,99250.97
2023-01-31T09:16:26.945Z,99261.44
2023-01-31T09:18:56.382Z,99263.88
2023-01-31T09:21:25.246Z,99257.28
2023-01-31T09:23:58.658Z,99251.19
2023-01-31T09:26:26.646Z,99257.78
2023-01-31T09:28:54.512Z,99257.38
2023-01-31T09:31:22.481Z,99250.75
2023-01-31T09:33:50.097Z,99248.56
2023-01-31T09:36:20.985Z,99240.66
2023-01-31T09:38:53.576Z,99243.75
2023-01-31T09:41:34.792Z,99254.59
2023-01-31T09:44:17.491Z,99239.91
2023-01-31T09:47:06.047Z,99242.66
2023-01-31T09:49:50.083Z,99231.81
2023-01-31T09:52:17.891Z,99229.53
2023-01-31T09:54:48.923Z,99227.09
2023-01-31T09:57:28.442Z,99225.84
2023-01-31T10:00:23.002Z,99223.44
2023-01-31T10:03:38.418Z,99224.56
2023-01-31T10:06:39.635Z,99219.25
2023-01-31T10:09:16.751Z,99210.47
2023-01-31T10:12:14.294Z,99205.50
2023-01-31T10:14:53.777Z,99200.81
2023-01-31T10:17:31.722Z,99195.66
2023-01-31T10:20:32.773Z,99191.25
2023-01-31T10:23:16.746Z,99197.50
2023-01-31T10:25:57.886Z,99188.53
2023-01-31T10:28:49.202Z,99187.91
2023-01-31T10:31:28.191Z,99194.56
2023-01-31T10:34:21.631Z,99183.19
2023-01-31T10:37:10.461Z,99193.34
2023-01-31T10:39:48.656Z,99181.31
2023-01-31T10:42:23.660Z,99175.03
2023-01-31T10:44:59.343Z,99184.63
2023-01-31T10:47:37.399Z,99179.81
2023-01-31T10:50:23.798Z,99183.53
2023-01-31T10:53:15.401Z,99178.59
2023-01-31T10:56:09.454Z,99175.94
2023-01-31T10:58:37.706Z,99171.88
2023-01-31T11:01:12.045Z,99184.03
2023-01-31T11:03:40.321Z,99168.97
2023-01-31T11:06:12.846Z,99162.69
2023-01-31T11:09:00.497Z,99175.16
2023-01-31T11:11:30.435Z,99170.25
2023-01-31T11:14:07.637Z,99168.19
2023-01-31T11:16:39.096Z,99168.53
2023-01-31T11:19:45.849Z,99169.19
2023-01-31T11:22:25.342Z,99169.06
2023-01-31T11:24:54.121Z,99163.06
2023-01-31T11:27:40.917Z,99163.06
2023-01-31T11:30:31.654Z,99165.88
2023-01-31T11:32:59.775Z,99167.47
2023-01-31T11:35:33.212Z,99171.22
2023-01-31T11:38:11.561Z,99176.16
2023-01-31T11:40:41.180Z,99176.34
2023-01-31T11:43:17.653Z,99175.44
2023-01-31T11:45:54.589Z,99158.97
2023-01-31T11:48:38.547Z,99164.00
2023-01-31T11:51:06.955Z,99161.78
2023-01-31T11:53:49.925Z,99161.41
2023-01-31T11:56:27.200Z,99160.75
2023-01-31T11:58:59.059Z,99158.03
2023-01-31T12:01:27.793Z,99163.69
2023-01-31T12:04:04.759Z,99161.31
2023-01-31T12:06:41.348Z,99147.09
2023-01-31T12:09:24.984Z,99152.41
2023-01-31T12:12:07.918Z,99153.06
2023-01-31T12:14:43.195Z,99156.19
2023-01-31T12:17:17.553Z,99156.97
2023-01-31T12:20:26.538Z,99167.31
2023-01-31T12:23:09.397Z,99143.84
2023-01-31T12:26:04.622Z,99150.88
2023-01-31T12:29:25.767Z,99142.50
2023-01-31T12:32:52.756Z,99159.13
2023-01-31T12:35:43.524Z,99161.91
2023-01-31T12:39:12.318Z,99169.41
2023-01-31T12:41:56.737Z,99166.81
2023-01-31T12:45:03.271Z,99168.53
2023-01-31T12:47:45.620Z,99174.41
2023-01-31T12:50:25.102Z,99167.47
2023-01-31T12:53:10.913Z,99170.84
2023-01-31T12:56:23.214Z,99176.69
2023-01-31T12:59:16.291Z,99174.81
2023-01-31T13:02:19.700Z,99180.41
2023-01-31T13:05:02.355Z,99183.88
2023-01-31T13:07:40.449Z,99183.81
2023-01-31T13:10:28.693Z,99189.59
2023-01-31T13:12:59.473Z,99196.31
2023-01-31T13:16:04.123Z,99196.41
2023-01-31T13:18:35.732Z,99190.56
2023-01-31T13:21:10.879Z,99195.94
2023-01-31T13:23:48.428Z,99198.66
2023-01-31T13:26:22.389Z,99197.78
2023-01-31T13:29:14.654Z,99198.22
2023-01-31T13:32:04.428Z,99197.78
2023-01-31T13:34:56.172Z,99201.41
2023-01-31T13:37:26.067Z,99198.56
2023-01-31T13:40:17.085Z,99201.56
2023-01-31T13:42:44.662Z,99207.41
2023-01-31T13:45:32.054Z,99205.53
2023-01-31T13:48:25.700Z,99209.94
2023-01-31T13:51:22.125Z,99207.03
2023-01-31T13:53:59.845Z,99210.38
2023-01-31T13:56:35.582Z,99215.69
2023-01-31T13:59:03.948Z,99211.00
2023-01-31T14:01:44.533Z,99215.03
2023-01-31T14:04:14.973Z,99213.34
2023-01-31T14:06:58.728Z,99219.81
2023-01-31T14:10:10.686Z,99218.75
2023-01-31T14:12:40.806Z,99214.13
2023-01-31T14:15:50.065Z,99214.38
2023-01-31T14:18:38.691Z,99220.84
2023-01-31T14:21:31.332Z,99226.13
2023-01-31T14:24:04.205Z,99227.44
2023-01-31T14:26:43.573Z,99223.06
2023-01-31T14:29:22.424Z,99226.75
2023-01-31T14:31:52.908Z,99225.13
2023-01-31T14:34:30.820Z,99228.13
2023-01-31T14:37:20.319Z,99238.34
2023-01-31T14:40:28.493Z,99240.13
2023-01-31T14:43:05.771Z,99258.56
2023-01-31T14:46:22.661Z,99260.16
2023-01-31T14:49:37.092Z,99266.50
2023-01-31T14:52:19.799Z,99274.63
2023-01-31T14:55:26.350Z,99277.47
2023-01-31T14:58:00.091Z,99271.16
2023-01-31T15:00:51.340Z,99286.72
2023-01-31T15:03:30.881Z,99283.88
2023-01-31T15:06:09.296Z,99293.19
2023-01-31T15:08:46.775Z,99292.88
2023-01-31T15:11:40.653Z,99288.13
2023-01-31T15:14:36.822Z,99295.09
2023-01-31T15:17:33.066Z,99286.88
2023-01-31T15:20:20.690Z,99289.28
2023-01-31T15:22:49.640Z,99290.84
2023-01-31T15:25:45.776Z,99300.31
2023-01-31T15:28:22.392Z,99306.41
2023-01-31T15:30:53.035Z,99308.38
2023-01-31T15:33:48.797Z,99311.75
2023-01-31T15:36:46.543Z,99322.56
2023-01-31T15:39:56.941Z,99324.63
2023-01-31T15:42:33.299Z,99328.59
2023-01-31T15:45:35.380Z,99330.31
2023-01-31T15:48:14.532Z,99332.81
2023-01-31T15:51:00.186Z,99341.06
2023-01-31T15:53:32.868Z,99349.38
2023-01-31T15:56:03.517Z,99345.50
2023-01-31T15:58:33.458Z,99361.88
2023-01-31T16:01:03.597Z,99365.66
2023-01-31T16:03:41.743Z,99371.97
2023-01-31T16:06:34.701Z,99375.47
2023-01-31T16:09:21.641Z,99371.47
2023-01-31T16:11:52.599Z,99375.59
2023-01-31T16:14:26.511Z,99379.53
2023-01-31T16:16:58.045Z,99389.25
2023-01-31T16:19:35.937Z,99393.22
2023-01-31T16:22:04.123Z,99407.28
2023-01-31T16:24:32.184Z,99400.47
2023-01-31T16:27:07.092Z,99399.72
2023-01-31T16:29:49.036Z,99401.59
2023-01-31T16:32:31.963Z,99398.75
2023-01-31T16:35:27.787Z,99413.72
2023-01-31T16:38:15.490Z,99411.31
2023-01-31T16:40:55.628Z,99410.78
2023-01-31T16:43:31.478Z,99409.44
2023-01-31T16:46:35.707Z,99425.16
2023-01-31T16:49:26.006Z,99425.47
2023-01-31T16:52:27.801Z,99417.09
2023-01-31T16:55:01.368Z,99423.56
2023-01-31T16:57:38.077Z,99425.47
2023-01-31T17:00:33.146Z,99428.66
2023-01-31T17:03:01.967Z,99433.38
2023-01-31T17:05:49.738Z,99439.91
2023-01-31T17:08:20.284Z,99427.53
2023-01-31T17:10:51.744Z,99432.72
2023-01-31T17:13:28.743Z,99428.41
2023-01-31T17:15:57.441Z,99431.97
2023-01-31T17:18:29.706Z,99428.03
2023-01-31T17:20:57.800Z,99442.81
2023-01-31T17:23:26.374Z,99445.78
2023-01-31T17:25:55.352Z,99445.66
2023-01-31T17:28:25.821Z,99457.19
2023-01-31T17:30:55.755Z,99453.03
2023-01-31T17:33:27.316Z,99457.91
2023-01-31T17:35:55.773Z,99472.19
2023-01-31T17:38:30.341Z,99475.38
2023-01-31T17:41:08.053Z,99478.56
2023-01-31T17:43:36.735Z,99480.41
2023-01-31T17:46:09.964Z,99480.38
2023-01-31T17:48:55.594Z,99478.78
2023-01-31T17:51:25.039Z,99486.81
2023-01-31T17:56:40.438Z,99493.16
2023-01-31T17:59:21.649Z,99497.56
2023-01-31T18:01:57.933Z,99481.19
2023-01-31T18:04:27.420Z,99481.66
2023-01-31T18:06:57.719Z,99481.88
2023-01-31T18:09:28.142Z,99486.72
2023-01-31T18:11:57.756Z,99509.44
2023-01-31T18:14:26.853Z,99516.28
2023-01-31T18:16:58.494Z,99516.63
2023-01-31T18:19:27.259Z,99514.06
2023-01-31T18:22:17.386Z,99519.84
2023-01-31T18:25:10.784Z,99535.97
2023-01-31T18:27:39.911Z,99533.63
2023-01-31T18:30:09.618Z,99522.44
2023-01-31T18:32:40.300Z,99529.72
2023-01-31T18:35:10.114Z,99526.03
2023-01-31T18:37:38.720Z,99526.03
2023-01-31T18:40:20.244Z,99521.88
2023-01-31T18:42:48.820Z,99522.44
2023-01-31T18:45:23.338Z,99527.88
2023-01-31T18:48:13.021Z,99525.59
2023-01-31T18:50:49.505Z,99522.22
2023-01-31T18:53:20.607Z,99527.41
2023-01-31T18:56:00.288Z,99532.78
2023-01-31T18:58:55.217Z,99525.03
2023-01-31T19:01:32.974Z,99531.78
2023-01-31T19:04:04.204Z,99533.66
2023-01-31T19:06:38.705Z,99529.41
2023-01-31T19:09:16.090Z,99544.75
2023-01-31T19:11:47.043Z,99546.50
2023-01-31T19:14:16.374Z,99544.25
2023-01-31T19:16:45.812Z,99550.34
2023-01-31T19:19:15.880Z,99549.94
2023-01-31T19:21:44.624Z,99555.84
2023-01-31T19:24:16.433Z,99548.13
2023-01-31T19:29:27.857Z,99557.06
2023-01-31T19:31:55.718Z,99557.88
2023-01-31T19:34:25.957Z,99557.31
2023-01-31T19:37:17.471Z,99557.72
2023-01-31T19:39:52.866Z,99548.44
2023-01-31T19:42:26.449Z,99554.72
2023-01-31T19:44:56.884Z,99554.72
2023-01-31T19:47:25.949Z,99558.13
2023-01-31T19:49:56.493Z,99556.75
2023-01-31T19:52:26.242Z,99559.84
2023-01-31T19:54:55.602Z,99558.34
2023-01-31T19:57:27.555Z,99557.88
2023-01-31T19:59:58.299Z,99559.94
2023-01-31T20:02:27.420Z,99558.34
2023-01-31T20:04:57.838Z,99565.69
2023-01-31T20:07:26.405Z,99563.34
2023-01-31T20:09:53.852Z,99568.84
2023-01-31T20:12:21.384Z,99573.50
2023-01-31T20:14:49.994Z,99574.53
2023-01-31T20:17:17.447Z,99571.16
2023-01-31T20:19:45.871Z,99577.16
2023-01-31T20:22:15.659Z,99571.94
2023-01-31T20:24:43.228Z,99566.25
2023-01-31T20:27:10.709Z,99571.16
2023-01-31T20:29:39.331Z,99573.75
2023-01-31T20:32:08.213Z,99576.13
2023-01-31T20:34:36.294Z,99579.25
2023-01-31T20:37:05.347Z,99583.91
2023-01-31T20:39:32.849Z,99585.75
2023-01-31T20:42:02.372Z,99577.72
2023-01-31T20:44:30.386Z,99594.06
2023-01-31T20:46:58.447Z,99575.63
2023-01-31T20:49:27.340Z,99580.81
2023-01-31T20:51:54.934Z,99584.94
2023-01-31T20:54:22.981Z,99584.41
2023-01-31T20:56:52.344Z,99583.34
2023-01-31T20:59:22.743Z,99581.00
2023-01-31T21:01:50.815Z,99583.34
2023-01-31T21:04:19.193Z,99582.34
2023-01-31T21:06:46.769Z,99578.22
2023-01-31T21:09:15.808Z,99582.91
2023-01-31T21:11:43.503Z,99585.50
2023-01-31T21:14:10.992Z,99581.06
2023-01-31T21:16:38.957Z,99579.25
2023-01-31T21:19:06.967Z,99577.19
2023-01-31T21:21:34.720Z,99582.91
2023-01-31T21:24:04.463Z,99584.44
2023-01-31T21:26:32.080Z,99585.75
2023-01-31T21:29:05.936Z,99578.22
2023-01-31T21:31:34.096Z,99569.41
2023-01-31T21:34:05.815Z,99587.81
2023-01-31T21:36:36.790Z,99579.00
2023-01-31T21:39:05.131Z,99583.66
2023-01-31T21:41:51.117Z,99587.00
2023-01-31T21:44:19.060Z,99593.72
2023-01-31T21:46:46.675Z,99588.53
2023-01-31T21:49:14.177Z,99593.25
2023-01-31T21:51:42.258Z,99593.50
2023-01-31T21:54:09.705Z,99604.13
2023-01-31T21:56:37.462Z,99598.91
2023-01-31T21:59:05.059Z,99601.81
2023-01-31T22:01:36.051Z,99593.25
2023-01-31T22:04:25.078Z,99597.06
2023-01-31T22:06:53.634Z,99600.97
2023-01-31T22:09:25.150Z,99599.94
2023-01-31T22:11:54.605Z,99594.28
2023-01-31T22:14:22.161Z,99592.75
2023-01-31T22:16:51.872Z,99596.38
2023-01-31T22:19:19.724Z,99600.53
2023-01-31T22:21:47.237Z,99603.41
2023-01-31T22:24:15.633Z,99599.25
2023-01-31T22:26:44.951Z,99596.91
2023-01-31T22:29:15.661Z,99595.88
2023-01-31T22:31:44.434Z,99584.69
2023-01-31T22:34:16.519Z,99588.09
2023-01-31T22:36:44.290Z,99594.84
2023-01-31T22:39:15.906Z,99594.28
2023-01-31T22:41:44.730Z,99591.69
2023-01-31T22:44:12.208Z,99595.84
2023-01-31T22:46:39.747Z,99605.66
2023-01-31T22:49:07.269Z,99599.69
2023-01-31T22:51:34.843Z,99598.94
2023-01-31T22:54:02.281Z,99597.88
2023-01-31T22:56:32.259Z,99590.41
2023-01-31T22:59:05.263Z,99591.91
2023-01-31T23:01:38.103Z,99599.63
2023-01-31T23:04:09.992Z,99604.03
2023-01-31T23:06:38.536Z,99597.56
2023-01-31T23:09:06.905Z,99607.19
2023-01-31T23:11:34.474Z,99602.00
2023-01-31T23:14:03.080Z,99602.84
2023-01-31T23:16:49.173Z,99614.22
2023-01-31T23:19:16.678Z,99617.09
2023-01-31T23:21:44.720Z,99616.28
2023-01-31T23:24:14.788Z,99623.25
2023-01-31T23:26:43.133Z,99632.34
2023-01-31T23:29:11.122Z,99630.53
2023-01-31T23:31:38.812Z,99619.09
2023-01-31T23:34:07.646Z,99624.81
2023-01-31T23:36:37.996Z,99630.44
2023-01-31T23:39:06.608Z,99625.75
2023-01-31T23:41:34.125Z,99626.31
2023-01-31T23:44:01.583Z,99618.06
2023-01-31T23:46:29.127Z,99619.31
2023-01-31T23:48:56.609Z,99620.38
2023-01-31T23:51:24.098Z,99615.94
2023-01-31T23:53:51.524Z,99627.34
2023-01-31T23:56:18.998Z,99621.69
2023-01-31T23:58:46.552Z,99628.06
